Time;durP1;ratioP1;P1;durP2;ratioP2;P2;SDS_P1;SDS_P2;PMS_P1;PMS_P2;Temp;Humidity;BMP_temperature;BMP_pressure;BME280_temperature;BME280_humidity;BME280_pressure;Samples;Min_cycle;Max_cycle;Signal;HPM_P1;HPM_P2
2022/03/05 00:01:01;;;;;;;23.10;11.43;;;2.20;99.90;;;;;;5018951;28;38449;-74
2022/03/05 00:03:27;;;;;;;19.13;10.50;;;2.20;99.90;;;;;;5020502;28;48371;-74
2022/03/05 00:05:53;;;;;;;20.27;10.87;;;2.20;99.90;;;;;;5018412;28;38924;-75
2022/03/05 00:08:20;;;;;;;22.17;11.93;;;2.20;99.90;;;;;;5020312;28;40034;-75
2022/03/05 00:10:46;;;;;;;19.73;11.57;;;2.20;99.90;;;;;;5017837;28;38859;-74
2022/03/05 00:13:15;;;;;;;23.70;12.43;;;2.20;99.90;;;;;;5021825;28;39650;-74
2022/03/05 00:15:43;;;;;;;22.17;11.93;;;2.20;99.90;;;;;;5016848;28;38778;-75
2022/03/05 00:18:09;;;;;;;25.10;11.93;;;2.10;99.90;;;;;;5018171;28;39203;-74
2022/03/05 00:20:35;;;;;;;26.33;11.80;;;2.10;99.90;;;;;;5011068;28;38537;-74
2022/03/05 00:23:01;;;;;;;24.10;12.63;;;2.10;99.90;;;;;;5033030;28;38246;-74
2022/03/05 00:25:27;;;;;;;21.87;11.93;;;2.10;99.90;;;;;;5016213;28;42050;-74
2022/03/05 00:27:54;;;;;;;24.40;13.10;;;2.00;99.90;;;;;;5026628;28;38430;-74
2022/03/05 00:30:21;;;;;;;24.23;12.43;;;1.90;99.90;;;;;;5015213;28;36686;-76
2022/03/05 00:32:50;;;;;;;23.93;12.50;;;1.90;99.90;;;;;;5013791;28;36907;-74
2022/03/05 00:35:17;;;;;;;22.93;12.20;;;1.80;99.90;;;;;;5002971;28;39043;-74
2022/03/05 00:37:43;;;;;;;24.50;12.23;;;1.80;99.90;;;;;;5026346;28;38517;-74
2022/03/05 00:40:10;;;;;;;26.40;12.87;;;1.70;99.90;;;;;;5015116;28;39002;-75
2022/03/05 00:42:39;;;;;;;27.53;13.33;;;1.70;99.90;;;;;;5016537;28;38438;-75
2022/03/05 00:45:06;;;;;;;26.53;13.73;;;1.60;99.90;;;;;;5026989;28;38872;-75
2022/03/05 00:47:36;;;;;;;26.27;13.80;;;1.50;99.90;;;;;;5022352;28;40169;-75
2022/03/05 00:50:05;;;;;;;27.13;13.60;;;1.40;99.90;;;;;;5010270;28;38251;-75
2022/03/05 00:52:32;;;;;;;27.87;13.57;;;1.40;99.90;;;;;;5030548;28;38049;-75
2022/03/05 00:54:58;;;;;;;25.73;13.27;;;1.30;99.90;;;;;;5021311;28;40359;-75
2022/03/05 00:57:24;;;;;;;26.77;14.07;;;1.20;99.90;;;;;;5020172;28;38848;-75
2022/03/05 00:59:50;;;;;;;30.87;15.00;;;1.20;99.90;;;;;;5021049;28;37805;-75
2022/03/05 01:02:19;;;;;;;26.70;13.90;;;1.10;99.90;;;;;;5031689;28;36538;-75
2022/03/05 01:04:45;;;;;;;29.90;14.80;;;1.10;99.90;;;;;;5016690;28;38515;-75
2022/03/05 01:07:11;;;;;;;29.57;15.20;;;1.10;99.90;;;;;;5016273;28;38383;-77
2022/03/05 01:09:38;;;;;;;28.23;14.80;;;1.00;99.90;;;;;;5015365;28;37194;-75
2022/03/05 01:12:04;;;;;;;28.40;13.90;;;0.80;99.90;;;;;;5021404;28;37213;-77
2022/03/05 01:14:31;;;;;;;27.90;13.77;;;0.70;99.90;;;;;;5020274;28;38783;-76
2022/03/05 01:16:57;;;;;;;30.00;14.10;;;0.60;99.90;;;;;;5038196;28;39159;-77
2022/03/05 01:19:23;;;;;;;33.73;14.77;;;0.50;99.90;;;;;;5021642;28;38666;-76
2022/03/05 01:21:49;;;;;;;29.20;14.37;;;0.30;99.90;;;;;;5019525;28;38873;-76
2022/03/05 01:24:15;;;;;;;24.00;13.90;;;0.30;99.90;;;;;;5018773;28;39632;-77
2022/03/05 01:26:41;;;;;;;30.73;14.37;;;0.30;99.90;;;;;;5022213;28;38764;-77
2022/03/05 01:29:07;;;;;;;33.27;14.30;;;0.30;99.90;;;;;;5020885;28;38507;-77
2022/03/05 01:31:33;;;;;;;29.87;14.90;;;0.30;99.90;;;;;;5035916;28;37562;-76
2022/03/05 01:33:59;;;;;;;31.57;15.47;;;0.40;99.90;;;;;;5018873;28;39435;-76
2022/03/05 01:36:25;;;;;;;30.57;15.00;;;0.40;99.90;;;;;;5021169;28;39584;-77
2022/03/05 01:38:52;;;;;;;36.37;16.83;;;0.40;99.90;;;;;;5018238;28;39239;-75
2022/03/05 01:41:18;;;;;;;31.20;15.47;;;0.40;99.90;;;;;;5021417;28;38292;-77
2022/03/05 01:43:50;;;;;;;30.37;15.53;;;0.30;99.90;;;;;;5020256;28;39332;-77
2022/03/05 01:46:36;;;;;;;34.03;18.00;;;0.40;99.90;;;;;;5026492;28;37904;-76
2022/03/05 01:49:05;;;;;;;30.60;15.10;;;0.40;99.90;;;;;;5006485;28;38753;-76
2022/03/05 01:51:34;;;;;;;32.87;15.90;;;0.40;99.90;;;;;;5010150;28;36233;-77
2022/03/05 01:54:00;;;;;;;33.60;16.27;;;0.30;99.90;;;;;;5013971;28;39998;-76
2022/03/05 01:56:28;;;;;;;36.37;18.10;;;0.40;99.90;;;;;;4999519;28;40628;-77
2022/03/05 01:58:58;;;;;;;35.17;17.27;;;0.40;99.90;;;;;;5016843;28;37767;-77
2022/03/05 02:01:27;;;;;;;32.17;15.70;;;0.30;99.90;;;;;;5011995;28;37327;-77
2022/03/05 02:03:54;;;;;;;34.77;17.37;;;0.30;99.90;;;;;;5021942;28;37773;-77
2022/03/05 02:06:21;;;;;;;40.20;16.87;;;0.20;99.90;;;;;;5034260;28;37582;-77
2022/03/05 02:08:48;;;;;;;38.27;18.33;;;0.10;99.90;;;;;;5019991;28;38111;-77
2022/03/05 02:11:14;;;;;;;37.23;18.50;;;0.10;99.90;;;;;;5018715;28;37457;-77
2022/03/05 02:13:43;;;;;;;37.60;17.80;;;0.00;99.90;;;;;;5006505;28;39611;-77
2022/03/05 02:16:10;;;;;;;35.53;17.50;;;-0.10;99.90;;;;;;5019311;28;38607;-77
2022/03/05 02:18:36;;;;;;;34.70;17.67;;;-0.10;99.90;;;;;;5019194;28;39132;-76
2022/03/05 02:21:02;;;;;;;45.30;19.37;;;-0.20;99.90;;;;;;5034768;28;37617;-77
2022/03/05 02:23:28;;;;;;;43.70;20.03;;;-0.10;99.90;;;;;;5021894;28;38719;-77
2022/03/05 02:26:00;;;;;;;42.10;19.60;;;-0.10;99.90;;;;;;5018585;28;38224;-77
2022/03/05 02:28:27;;;;;;;43.17;20.67;;;0.00;99.90;;;;;;5009405;28;38925;-77
2022/03/05 02:30:54;;;;;;;46.30;21.33;;;-0.10;99.90;;;;;;5029096;28;36908;-76
2022/03/05 02:33:20;;;;;;;43.07;18.90;;;-0.10;99.90;;;;;;5017313;28;38803;-76
2022/03/05 02:35:47;;;;;;;44.67;21.03;;;-0.10;99.90;;;;;;5020348;28;39739;-76
2022/03/05 02:38:18;;;;;;;46.73;21.73;;;-0.20;99.90;;;;;;5020959;28;37564;-76
2022/03/05 02:40:45;;;;;;;50.53;23.63;;;-0.10;99.90;;;;;;5017038;28;37574;-77
2022/03/05 02:43:11;;;;;;;49.03;23.10;;;-0.10;99.90;;;;;;5030708;28;39890;-76
2022/03/05 02:45:38;;;;;;;51.03;23.03;;;0.00;99.90;;;;;;5014680;28;38739;-76
2022/03/05 02:48:11;;;;;;;52.93;20.90;;;-0.10;99.90;;;;;;5020760;28;38931;-76
2022/03/05 02:50:37;;;;;;;;;;;-0.20;99.90;;;;;;5022616;28;37082;-76
2022/03/05 02:53:04;;;;;;;42.73;20.67;;;-0.30;99.90;;;;;;5030297;28;39258;-77
2022/03/05 02:55:30;;;;;;;43.50;20.53;;;-0.40;99.90;;;;;;5035173;28;38320;-77
2022/03/05 02:57:56;;;;;;;45.43;20.70;;;-0.50;99.90;;;;;;5021695;28;38086;-77
2022/03/05 03:00:23;;;;;;;48.53;21.97;;;-0.60;99.90;;;;;;5028555;28;36020;-76
2022/03/05 03:02:49;;;;;;;46.13;22.70;;;-0.60;99.90;;;;;;5009397;28;39577;-77
2022/03/05 03:05:16;;;;;;;46.77;21.97;;;-0.70;99.90;;;;;;5014464;28;38787;-76
2022/03/05 03:07:44;;;;;;;46.00;21.43;;;-0.70;99.90;;;;;;5015011;28;39587;-77
2022/03/05 03:10:11;;;;;;;50.93;22.17;;;-0.70;99.90;;;;;;5009731;28;37637;-77
2022/03/05 03:12:38;;;;;;;53.07;23.43;;;-0.70;99.90;;;;;;5014236;28;38475;-77
2022/03/05 03:15:09;;;;;;;58.93;23.90;;;-0.70;99.90;;;;;;5012296;28;37266;-77
2022/03/05 03:17:49;;;;;;;56.30;24.77;;;-0.70;99.90;;;;;;5019009;28;38321;-76
2022/03/05 03:20:19;;;;;;;53.57;25.40;;;-0.60;99.90;;;;;;5013749;28;37910;-77
2022/03/05 03:22:46;;;;;;;63.63;26.50;;;-0.70;99.90;;;;;;5026010;28;38754;-77
2022/03/05 03:25:12;;;;;;;65.63;26.43;;;-0.60;99.90;;;;;;5021253;28;39023;-76
2022/03/05 03:27:39;;;;;;;63.50;25.53;;;-0.60;99.90;;;;;;5034355;28;37482;-76
2022/03/05 03:30:07;;;;;;;62.07;25.23;;;-0.50;99.90;;;;;;5016807;28;38772;-77
2022/03/05 03:32:34;;;;;;;63.10;26.97;;;-0.60;99.90;;;;;;5019076;28;40362;-76
2022/03/05 03:35:00;;;;;;;62.80;26.57;;;-0.50;99.90;;;;;;5022535;28;38391;-76
2022/03/05 03:37:29;;;;;;;63.80;26.60;;;-0.50;99.90;;;;;;5025245;28;39479;-76
2022/03/05 03:39:56;;;;;;;55.93;24.53;;;-0.50;99.90;;;;;;5021978;28;37414;-76
2022/03/05 03:42:23;;;;;;;56.93;26.57;;;-0.50;99.90;;;;;;5020161;28;39628;-76
2022/03/05 03:44:49;;;;;;;59.13;26.20;;;-0.60;99.90;;;;;;5020040;28;38264;-76
2022/03/05 03:47:16;;;;;;;60.43;25.90;;;-0.70;99.90;;;;;;5016877;28;39192;-76
2022/03/05 03:49:42;;;;;;;59.07;24.07;;;-0.70;99.90;;;;;;5037213;28;37107;-77
2022/03/05 03:52:08;;;;;;;53.70;25.57;;;-0.80;99.90;;;;;;5012183;28;39395;-76
2022/03/05 03:54:34;;;;;;;56.80;25.33;;;-1.00;99.90;;;;;;5005763;28;39243;-77
2022/03/05 03:57:00;;;;;;;59.23;26.87;;;-1.00;99.90;;;;;;5034405;28;40066;-76
2022/03/05 03:59:26;;;;;;;52.57;25.60;;;-1.00;99.90;;;;;;5015244;28;46673;-76
2022/03/05 04:01:53;;;;;;;50.47;25.33;;;-1.10;99.90;;;;;;5037676;28;40025;-76
2022/03/05 04:04:19;;;;;;;59.27;25.10;;;-1.20;99.90;;;;;;5023000;28;39669;-76
2022/03/05 04:09:29;;;;;;;62.43;25.77;;;-1.30;99.90;;;;;;5026203;28;49582;-76
2022/03/05 04:11:56;;;;;;;55.50;24.63;;;-1.40;99.90;;;;;;5021314;28;39002;-76
2022/03/05 04:14:22;;;;;;;58.17;25.77;;;-1.40;99.90;;;;;;5036430;28;38770;-76
2022/03/05 04:16:48;;;;;;;58.83;24.10;;;-1.50;99.90;;;;;;5030452;28;38164;-77
2022/03/05 04:19:14;;;;;;;59.27;23.97;;;-1.50;99.90;;;;;;5038098;28;38075;-76
2022/03/05 04:21:41;;;;;;;52.63;24.27;;;-1.60;99.90;;;;;;5026315;28;39886;-77
2022/03/05 04:24:07;;;;;;;59.20;25.60;;;-1.60;99.90;;;;;;5039118;28;37624;-76
2022/03/05 04:26:35;;;;;;;57.80;26.10;;;-1.50;99.90;;;;;;5015583;28;38545;-76
2022/03/05 04:29:02;;;;;;;64.53;26.93;;;-1.60;99.90;;;;;;5022488;28;37979;-76
2022/03/05 04:31:28;;;;;;;58.07;25.20;;;-1.60;99.90;;;;;;5024898;28;38473;-75
2022/03/05 04:33:54;;;;;;;55.67;25.23;;;-1.70;99.90;;;;;;5020690;28;39543;-76
2022/03/05 04:36:20;;;;;;;56.53;25.70;;;-1.70;99.90;;;;;;5021893;28;38741;-76
2022/03/05 04:38:46;;;;;;;55.33;24.37;;;-1.70;99.90;;;;;;5022360;28;37970;-76
2022/03/05 04:41:12;;;;;;;61.37;25.70;;;-1.70;99.90;;;;;;5019063;28;40226;-76
2022/03/05 04:43:38;;;;;;;69.07;27.33;;;-1.70;99.90;;;;;;5034755;28;39251;-76
2022/03/05 04:46:04;;;;;;;64.70;26.20;;;-1.70;99.90;;;;;;5025074;28;38332;-76
2022/03/05 04:48:30;;;;;;;68.87;27.33;;;-1.60;99.90;;;;;;5025663;28;37527;-76
2022/03/05 04:50:57;;;;;;;63.50;27.50;;;-1.60;99.90;;;;;;5035968;28;39244;-76
2022/03/05 04:53:23;;;;;;;64.57;26.70;;;-1.60;99.90;;;;;;5015667;28;38979;-76
2022/03/05 04:55:50;;;;;;;65.80;26.27;;;-1.60;99.90;;;;;;5024092;28;38195;-76
2022/03/05 04:58:17;;;;;;;69.30;27.70;;;-1.70;99.90;;;;;;5021217;28;37406;-76
2022/03/05 05:00:43;;;;;;;60.10;27.10;;;-1.70;99.90;;;;;;5019572;28;38680;-76
2022/03/05 05:03:09;;;;;;;63.27;25.80;;;-1.80;99.90;;;;;;5020232;28;38719;-77
2022/03/05 05:05:35;;;;;;;64.97;26.23;;;-1.70;99.90;;;;;;5022118;28;39193;-76
2022/03/05 05:08:02;;;;;;;66.37;27.23;;;-1.60;99.90;;;;;;5020399;28;39062;-76
2022/03/05 05:10:28;;;;;;;62.23;26.03;;;-1.60;99.90;;;;;;5040402;28;40788;-76
2022/03/05 05:12:54;;;;;;;61.60;25.50;;;-1.70;99.90;;;;;;5020760;28;38469;-76
2022/03/05 05:15:20;;;;;;;64.20;26.57;;;-1.80;99.90;;;;;;5022158;28;38429;-76
2022/03/05 05:17:46;;;;;;;63.17;26.43;;;-1.80;99.90;;;;;;5022813;28;37332;-76
2022/03/05 05:20:12;;;;;;;63.37;26.67;;;-1.80;99.90;;;;;;5035393;28;39657;-76
2022/03/05 05:22:38;;;;;;;63.73;25.07;;;-1.90;99.90;;;;;;5024480;28;38702;-76
2022/03/05 05:25:06;;;;;;;75.63;29.77;;;-2.00;99.90;;;;;;5019408;28;39294;-76
2022/03/05 05:27:37;;;;;;;74.67;28.53;;;-2.00;99.90;;;;;;5020112;28;38335;-76
2022/03/05 05:30:04;;;;;;;69.77;27.13;;;-2.00;99.90;;;;;;5016520;28;42124;-76
2022/03/05 05:32:31;;;;;;;63.67;25.33;;;-2.10;99.90;;;;;;5019572;28;38968;-76
2022/03/05 05:34:57;;;;;;;63.07;26.50;;;-2.20;99.90;;;;;;5022363;28;38636;-76
2022/03/05 05:37:23;;;;;;;66.27;27.17;;;-2.20;99.90;;;;;;5022869;28;38226;-76
2022/03/05 05:39:49;;;;;;;70.97;27.13;;;-2.20;99.90;;;;;;5020218;28;38639;-76
2022/03/05 05:42:15;;;;;;;71.70;27.37;;;-2.10;99.90;;;;;;5016968;28;38877;-76
2022/03/05 05:44:42;;;;;;;63.00;26.33;;;-2.00;99.90;;;;;;5022387;28;39119;-76
2022/03/05 05:47:09;;;;;;;68.83;26.40;;;-2.00;99.90;;;;;;5035025;28;36626;-76
2022/03/05 05:49:35;;;;;;;74.10;27.50;;;-2.00;99.90;;;;;;5019015;28;38538;-76
2022/03/05 05:52:02;;;;;;;71.53;28.73;;;-2.00;99.90;;;;;;5035078;28;39018;-75
2022/03/05 05:54:29;;;;;;;73.07;28.67;;;-2.00;99.90;;;;;;5022545;28;38823;-77
2022/03/05 05:56:58;;;;;;;67.73;28.13;;;-1.90;99.90;;;;;;5020200;28;37649;-76
2022/03/05 05:59:24;;;;;;;68.77;28.10;;;-1.80;99.90;;;;;;5014246;28;39708;-76
2022/03/05 06:01:50;;;;;;;80.13;28.80;;;-1.80;99.90;;;;;;5033857;28;38956;-76
2022/03/05 06:04:19;;;;;;;75.50;28.83;;;-1.80;99.90;;;;;;5011591;28;39443;-76
2022/03/05 06:06:46;;;;;;;78.40;29.20;;;-1.80;99.90;;;;;;5011547;28;37694;-76
2022/03/05 06:09:12;;;;;;;70.77;29.03;;;-1.70;99.90;;;;;;5018588;28;39998;-76
2022/03/05 06:11:38;;;;;;;67.17;27.50;;;-1.80;99.90;;;;;;5022452;28;39217;-76
2022/03/05 06:14:06;;;;;;;79.60;29.80;;;-1.80;99.90;;;;;;5018974;28;38195;-76
2022/03/05 06:16:32;;;;;;;83.77;31.53;;;-1.80;99.90;;;;;;5019100;28;38614;-77
2022/03/05 06:18:58;;;;;;;73.20;28.33;;;-1.80;99.90;;;;;;5027004;28;40290;-76
2022/03/05 06:21:24;;;;;;;82.23;30.37;;;-1.80;99.90;;;;;;5023064;28;40651;-75
2022/03/05 06:23:50;;;;;;;73.23;29.33;;;-1.70;99.90;;;;;;5014987;28;38396;-76
2022/03/05 06:26:17;;;;;;;67.30;29.30;;;-1.70;99.90;;;;;;5025859;28;38982;-76
2022/03/05 06:28:43;;;;;;;74.67;28.70;;;-1.70;99.90;;;;;;5027409;28;38420;-76
2022/03/05 06:31:09;;;;;;;84.83;31.93;;;-1.70;99.90;;;;;;5026111;28;38277;-76
2022/03/05 06:33:36;;;;;;;77.40;29.70;;;-1.70;99.90;;;;;;5023161;28;41375;-76
2022/03/05 06:36:03;;;;;;;86.73;31.83;;;-1.70;99.90;;;;;;5020424;28;36209;-75
2022/03/05 06:38:29;;;;;;;75.40;30.43;;;-1.60;99.90;;;;;;5022073;28;38855;-76
2022/03/05 06:40:55;;;;;;;85.83;32.07;;;-1.60;99.90;;;;;;5019837;28;37335;-76
2022/03/05 06:43:21;;;;;;;82.80;33.17;;;-1.60;99.90;;;;;;5028844;28;39477;-76
2022/03/05 06:45:48;;;;;;;82.90;30.77;;;-1.60;99.90;;;;;;5016308;28;37275;-76
2022/03/05 06:48:14;;;;;;;74.87;30.27;;;-1.60;99.90;;;;;;5013011;28;39481;-76
2022/03/05 06:50:40;;;;;;;83.17;32.70;;;-1.60;99.90;;;;;;5022287;28;38551;-76
2022/03/05 06:53:07;;;;;;;78.33;30.57;;;-1.50;99.90;;;;;;5032639;28;37539;-76
2022/03/05 06:55:33;;;;;;;80.93;31.47;;;-1.40;99.90;;;;;;5015881;28;36811;-76
2022/03/05 06:57:59;;;;;;;83.73;31.30;;;-1.40;99.90;;;;;;5013321;28;39411;-76
2022/03/05 07:00:25;;;;;;;82.50;29.97;;;-1.50;99.90;;;;;;5032849;28;37764;-77
2022/03/05 07:02:51;;;;;;;82.60;33.47;;;-1.40;99.90;;;;;;5016549;28;38757;-76
2022/03/05 07:05:18;;;;;;;81.03;32.67;;;-1.40;99.90;;;;;;5017783;28;36779;-76
2022/03/05 07:07:44;;;;;;;82.60;31.23;;;-1.40;99.90;;;;;;5026244;28;37684;-77
2022/03/05 07:10:10;;;;;;;87.13;34.37;;;-1.30;99.90;;;;;;5015527;28;39662;-76
2022/03/05 07:12:36;;;;;;;80.60;29.93;;;-1.30;99.90;;;;;;5031393;28;39308;-76
2022/03/05 07:15:03;;;;;;;82.90;33.00;;;-1.30;99.90;;;;;;5032043;28;36541;-76
2022/03/05 07:17:29;;;;;;;76.43;32.63;;;-1.20;99.90;;;;;;5015975;28;37931;-76
2022/03/05 07:19:55;;;;;;;84.70;35.63;;;-1.10;99.90;;;;;;5019096;28;39737;-76
2022/03/05 07:22:22;;;;;;;92.17;33.47;;;-1.00;99.90;;;;;;5028453;28;39281;-77
2022/03/05 07:24:48;;;;;;;85.00;33.17;;;-1.00;99.90;;;;;;5032787;28;39027;-76
2022/03/05 07:27:15;;;;;;;84.97;32.27;;;-0.90;99.90;;;;;;5014674;28;38605;-76
2022/03/05 07:29:42;;;;;;;80.00;33.63;;;-0.90;99.90;;;;;;5031630;28;38672;-75
2022/03/05 07:32:08;;;;;;;86.93;32.90;;;-0.80;99.90;;;;;;5015339;28;38696;-76
2022/03/05 07:34:34;;;;;;;79.40;32.73;;;-0.80;99.90;;;;;;5017845;28;36888;-75
2022/03/05 07:37:00;;;;;;;82.17;31.80;;;-0.80;99.90;;;;;;5016335;28;38911;-76
2022/03/05 07:39:26;;;;;;;78.37;33.60;;;-0.80;99.90;;;;;;5013536;28;48363;-76
2022/03/05 07:41:53;;;;;;;80.23;33.70;;;-0.70;99.90;;;;;;5011999;28;38628;-76
2022/03/05 07:44:19;;;;;;;86.07;32.97;;;-0.70;99.90;;;;;;5015863;28;38494;-76
2022/03/05 07:46:45;;;;;;;80.03;32.77;;;-0.60;99.90;;;;;;5027740;28;40318;-75
2022/03/05 07:49:13;;;;;;;76.80;32.30;;;-0.60;99.90;;;;;;5012195;28;38484;-76
2022/03/05 07:51:39;;;;;;;80.80;32.00;;;-0.60;99.90;;;;;;5016762;28;39827;-76
2022/03/05 07:54:06;;;;;;;75.93;30.87;;;-0.60;99.90;;;;;;5022386;28;36605;-76
2022/03/05 07:56:32;;;;;;;75.60;30.33;;;-0.50;99.90;;;;;;5013515;28;39131;-76
2022/03/05 07:58:58;;;;;;;82.27;34.07;;;-0.40;99.90;;;;;;5015492;28;40756;-76
2022/03/05 08:01:24;;;;;;;74.90;31.17;;;-0.30;99.90;;;;;;5019686;28;38370;-76
2022/03/05 08:03:50;;;;;;;72.27;31.17;;;-0.30;99.90;;;;;;5017609;28;37600;-76
2022/03/05 08:06:16;;;;;;;82.63;33.50;;;-0.20;99.90;;;;;;5011342;28;39564;-77
2022/03/05 08:08:42;;;;;;;77.70;32.70;;;-0.10;99.90;;;;;;5013443;28;38600;-76
2022/03/05 08:11:08;;;;;;;71.13;30.90;;;-0.10;99.90;;;;;;5011351;28;40068;-76
2022/03/05 08:13:34;;;;;;;74.00;30.03;;;0.00;99.90;;;;;;5015005;28;37816;-77
2022/03/05 08:16:00;;;;;;;71.63;31.27;;;0.00;99.90;;;;;;5013934;28;39265;-76
2022/03/05 08:18:27;;;;;;;69.73;31.77;;;0.10;99.90;;;;;;5016297;28;47078;-76
2022/03/05 08:20:53;;;;;;;76.77;31.37;;;0.10;99.90;;;;;;5014397;28;39876;-76
2022/03/05 08:23:19;;;;;;;82.47;32.20;;;0.20;99.90;;;;;;5016334;28;37319;-77
2022/03/05 08:25:45;;;;;;;69.83;33.20;;;0.30;99.90;;;;;;5021415;28;39036;-76
2022/03/05 08:28:11;;;;;;;80.13;34.23;;;0.40;99.90;;;;;;5016544;28;39321;-76
2022/03/05 08:30:40;;;;;;;66.97;30.00;;;0.40;99.90;;;;;;5031803;28;39323;-76
2022/03/05 08:33:06;;;;;;;75.57;32.77;;;0.40;99.90;;;;;;5020212;28;38279;-76
2022/03/05 08:35:32;;;;;;;68.37;30.93;;;0.60;99.90;;;;;;5021826;28;38970;-76
2022/03/05 08:37:58;;;;;;;82.50;32.73;;;0.70;99.90;;;;;;5014555;28;37977;-76
2022/03/05 08:40:24;;;;;;;71.17;30.40;;;0.80;99.90;;;;;;5014393;28;37907;-76
2022/03/05 08:42:50;;;;;;;69.80;32.37;;;0.80;99.90;;;;;;5019005;28;36877;-76
2022/03/05 08:45:17;;;;;;;71.33;30.97;;;0.80;99.90;;;;;;5022756;28;39766;-77
2022/03/05 08:47:44;;;;;;;65.83;30.30;;;0.80;99.90;;;;;;5015623;28;39141;-79
2022/03/05 08:50:12;;;;;;;67.83;29.90;;;0.80;99.90;;;;;;5022002;28;38745;-76
2022/03/05 08:52:39;;;;;;;65.13;29.70;;;0.80;99.90;;;;;;5016542;28;37962;-77
2022/03/05 08:55:10;;;;;;;67.30;30.33;;;0.90;99.90;;;;;;5023397;28;39742;-77
2022/03/05 08:57:37;;;;;;;62.90;28.37;;;1.00;99.90;;;;;;5013174;28;40079;-77
2022/03/05 09:00:06;;;;;;;62.27;29.63;;;1.20;99.90;;;;;;5034753;28;39071;-76
2022/03/05 09:02:32;;;;;;;63.27;30.10;;;1.30;99.90;;;;;;5020416;28;37302;-78
2022/03/05 09:04:58;;;;;;;67.33;30.37;;;1.30;99.90;;;;;;5017754;28;38977;-77
2022/03/05 09:07:24;;;;;;;64.23;30.07;;;1.40;99.90;;;;;;5019916;28;39085;-78
2022/03/05 09:09:50;;;;;;;57.90;27.87;;;1.40;99.90;;;;;;5018825;28;38352;-77
2022/03/05 09:12:16;;;;;;;58.07;28.80;;;1.50;99.90;;;;;;5035573;28;37540;-78
2022/03/05 09:14:42;;;;;;;66.67;32.60;;;1.60;99.90;;;;;;5022124;28;39466;-77
2022/03/05 09:17:08;;;;;;;62.20;28.77;;;1.70;99.90;;;;;;5019681;28;38599;-76
2022/03/05 09:19:35;;;;;;;59.50;28.23;;;1.80;99.90;;;;;;5034648;28;38532;-76
2022/03/05 09:22:01;;;;;;;58.27;29.67;;;1.90;99.90;;;;;;5013191;28;37333;-76
2022/03/05 09:24:27;;;;;;;61.23;28.63;;;2.00;99.90;;;;;;5021028;28;47909;-77
2022/03/05 09:26:53;;;;;;;59.93;28.03;;;2.10;99.90;;;;;;5044436;28;38281;-77
2022/03/05 09:29:19;;;;;;;61.90;29.93;;;2.20;99.90;;;;;;5021026;28;38261;-77
2022/03/05 09:31:45;;;;;;;60.00;29.27;;;2.40;99.90;;;;;;5019357;28;37457;-78
2022/03/05 09:34:11;;;;;;;59.33;29.37;;;2.60;99.90;;;;;;5022330;28;38755;-78
2022/03/05 09:36:41;;;;;;;59.00;28.40;;;2.70;99.90;;;;;;5033040;28;37654;-75
2022/03/05 09:39:08;;;;;;;61.37;28.60;;;2.80;99.90;;;;;;5017087;28;38398;-75
2022/03/05 09:41:34;;;;;;;60.20;27.57;;;3.00;99.90;;;;;;5022012;28;37826;-76
2022/03/05 09:44:00;;;;;;;57.17;27.70;;;3.20;99.90;;;;;;5032428;28;37415;-76
2022/03/05 09:46:27;;;;;;;57.07;27.53;;;3.20;99.90;;;;;;5013962;28;38621;-76
2022/03/05 09:48:54;;;;;;;57.63;29.13;;;3.20;99.90;;;;;;5016704;28;38604;-78
2022/03/05 09:51:23;;;;;;;58.80;29.43;;;3.30;99.90;;;;;;5018546;28;37799;-76
2022/03/05 09:53:53;;;;;;;53.60;27.03;;;3.50;99.90;;;;;;5033934;28;41001;-79
2022/03/05 09:56:19;;;;;;;56.80;27.87;;;3.60;99.90;;;;;;5046995;28;39641;-81
2022/03/05 09:58:47;;;;;;;55.20;26.80;;;3.70;99.90;;;;;;5055678;28;38419;-81
2022/03/05 10:01:16;;;;;;;52.03;27.13;;;3.80;99.90;;;;;;5054222;28;36047;-81
2022/03/05 10:03:51;;;;;;;55.40;27.73;;;4.00;99.90;;;;;;5045061;28;37174;-81
2022/03/05 10:06:29;;;;;;;51.63;27.10;;;4.10;99.90;;;;;;5041651;28;37918;-81
2022/03/05 10:08:56;;;;;;;50.53;26.30;;;4.30;99.90;;;;;;5029898;28;38787;-82
2022/03/05 10:11:24;;;;;;;47.80;25.03;;;4.50;99.90;;;;;;5039376;28;36639;-81
2022/03/05 10:13:51;;;;;;;47.77;25.27;;;4.70;99.90;;;;;;5036949;28;40943;-82
2022/03/05 10:16:29;;;;;;;46.30;24.30;;;4.70;99.90;;;;;;5055202;28;38546;-81
2022/03/05 10:19:15;;;;;;;45.23;23.97;;;4.80;99.90;;;;;;5043219;28;38636;-83
2022/03/05 10:22:03;;;;;;;51.83;25.47;;;4.90;99.90;;;;;;5059949;28;47172;-83
2022/03/05 10:24:40;;;;;;;44.40;23.07;;;5.00;99.90;;;;;;5052098;28;46848;-84
2022/03/05 10:27:08;;;;;;;42.13;22.87;;;5.20;99.90;;;;;;5038387;28;38110;-83
2022/03/05 10:29:39;;;;;;;43.00;23.27;;;5.40;99.90;;;;;;5061271;28;37994;-83
2022/03/05 10:32:10;;;;;;;45.73;25.97;;;5.60;99.90;;;;;;5044642;28;37038;-83
2022/03/05 10:34:44;;;;;;;45.47;24.10;;;5.70;99.90;;;;;;5044596;28;39702;-83
2022/03/05 10:37:11;;;;;;;45.90;25.87;;;5.80;99.90;;;;;;5049646;28;38675;-83
2022/03/05 10:45:04;;;;;;;41.43;23.97;;;6.20;99.90;;;;;;5095617;23;20057;-85
2022/03/05 10:47:42;;;;;;;47.43;23.73;;;6.30;99.90;;;;;;5022662;28;47847;-82
2022/03/05 10:50:29;;;;;;;43.17;23.57;;;6.40;99.90;;;;;;5037713;28;38114;-83
2022/03/05 10:53:00;;;;;;;46.70;22.67;;;6.40;99.90;;;;;;5042195;28;38084;-82
2022/03/05 10:55:28;;;;;;;39.17;23.20;;;6.60;99.90;;;;;;5060033;28;40317;-82
2022/03/05 10:58:00;;;;;;;43.27;22.07;;;6.70;99.90;;;;;;5060875;28;37398;-82
2022/03/05 11:00:27;;;;;;;44.67;24.03;;;6.90;99.90;;;;;;5042365;28;48162;-84
2022/03/05 11:02:56;;;;;;;44.07;23.43;;;7.00;99.90;;;;;;5033623;28;36384;-84
2022/03/05 11:05:23;;;;;;;44.90;25.63;;;7.10;99.90;;;;;;5018099;28;38871;-84
2022/03/05 11:07:56;;;;;;;46.23;24.10;;;7.20;99.90;;;;;;5030560;28;37237;-84
2022/03/05 11:10:29;;;;;;;40.67;23.33;;;7.20;99.90;;;;;;5039274;28;38014;-83
2022/03/05 11:12:59;;;;;;;;;;;7.30;99.90;;;;;;5057204;28;38978;-84
2022/03/05 11:15:27;;;;;;;44.53;23.27;;;7.40;99.90;;;;;;5035698;28;41144;-81
2022/03/05 11:17:54;;;;;;;42.03;23.50;;;7.50;99.90;;;;;;5031509;28;37573;-84
2022/03/05 11:20:20;;;;;;;39.90;23.73;;;7.50;99.90;;;;;;5030810;28;37557;-82
2022/03/05 11:22:49;;;;;;;40.10;22.80;;;7.60;99.90;;;;;;5032691;28;37209;-82
2022/03/05 11:25:22;;;;;;;41.53;22.43;;;7.70;99.90;;;;;;5029006;28;37875;-84
2022/03/05 11:28:01;;;;;;;41.20;22.85;;;7.70;99.90;;;;;;5028468;28;38402;-82
2022/03/05 11:30:38;;;;;;;42.73;23.77;;;7.80;99.90;;;;;;5029602;28;48066;-83
2022/03/05 11:33:12;;;;;;;42.67;22.57;;;7.90;99.90;;;;;;5034464;28;36964;-82
2022/03/05 11:35:48;;;;;;;42.17;22.90;;;8.00;99.90;;;;;;5036304;28;39942;-83
2022/03/05 11:38:39;;;;;;;45.53;22.93;;;8.20;99.90;;;;;;5070921;23;39392;-80
2022/03/05 11:42:01;;;;;;;42.07;23.93;;;8.10;99.90;;;;;;5450996;22;39078;-84
2022/03/05 11:54:49;;;;;;;40.37;22.93;;;8.90;99.90;;;;;;5733039;23;20042;-81
2022/03/05 11:57:44;;;;;;;44.17;24.50;;;9.00;99.90;;;;;;5053183;28;37222;-81
2022/03/05 12:00:13;;;;;;;43.43;23.63;;;9.20;99.90;;;;;;5244771;23;39395;-81
2022/03/05 12:05:45;;;;;;;43.13;24.90;;;9.30;99.90;;;;;;5290385;23;20026;-83
2022/03/05 12:08:48;;;;;;;41.23;23.77;;;9.40;99.90;;;;;;5046322;28;37164;-82
2022/03/05 12:11:18;;;;;;;41.77;24.50;;;9.40;99.90;;;;;;5047805;28;38820;-80
2022/03/05 12:13:57;;;;;;;44.70;25.23;;;9.40;99.90;;;;;;5037567;28;38063;-81
2022/03/05 12:16:28;;;;;;;42.63;24.57;;;9.60;99.90;;;;;;5021682;28;38800;-77
2022/03/05 12:18:59;;;;;;;43.13;24.10;;;9.60;99.90;;;;;;5036891;28;37249;-80
2022/03/05 12:21:34;;;;;;;46.10;24.77;;;9.60;99.90;;;;;;5015494;28;37847;-81
2022/03/05 12:24:07;;;;;;;41.27;23.37;;;9.80;99.90;;;;;;5030555;23;37934;-78
2022/03/05 12:26:39;;;;;;;39.87;23.87;;;9.80;99.90;;;;;;5011499;28;47741;-78
2022/03/05 12:29:06;;;;;;;38.45;23.42;;;9.70;99.90;;;;;;5028980;28;37473;-78
2022/03/05 12:31:37;;;;;;;46.13;25.30;;;9.80;99.90;;;;;;5025936;28;37781;-78
2022/03/05 12:34:03;;;;;;;42.03;24.57;;;10.00;99.90;;;;;;5011437;28;39558;-78
2022/03/05 12:36:29;;;;;;;45.33;24.63;;;10.00;99.90;;;;;;5006392;28;37768;-78
2022/03/05 12:39:00;;;;;;;42.23;24.57;;;10.10;99.90;;;;;;5010811;28;36386;-79
2022/03/05 12:41:27;;;;;;;44.43;25.00;;;10.20;99.90;;;;;;5029750;28;38999;-79
2022/03/05 12:43:55;;;;;;;37.73;23.50;;;10.30;99.90;;;;;;5038813;28;38699;-79
2022/03/05 12:46:22;;;;;;;41.00;23.57;;;10.30;99.90;;;;;;5031755;28;38636;-79
2022/03/05 12:48:48;;;;;;;44.27;23.90;;;10.40;99.90;;;;;;5026142;28;36661;-79
2022/03/05 12:51:15;;;;;;;37.83;23.37;;;10.50;99.90;;;;;;5026806;28;37515;-80
2022/03/05 12:53:42;;;;;;;36.97;21.83;;;10.50;99.90;;;;;;5026610;28;37972;-79
2022/03/05 12:56:08;;;;;;;38.75;23.05;;;10.50;99.90;;;;;;5011735;28;37348;-79
2022/03/05 12:58:37;;;;;;;40.95;23.70;;;10.40;99.90;;;;;;5018167;28;36433;-80